Time;durP1;ratioP1;P1;durP2;ratioP2;P2;SDS_P1;SDS_P2;PMS_P1;PMS_P2;Temp;Humidity;BMP_temperature;BMP_pressure;BME280_temperature;BME280_humidity;BME280_pressure;Samples;Min_cycle;Max_cycle;Signal;HPM_P1;HPM_P2
2022/01/20 00:01:48;;;;;;;1.90;1.70;;;;;;;;;;5031215;28;20171;-77
2022/01/20 00:04:19;;;;;;;1.80;1.70;;;;;;;;;;5036777;28;20279;-77
2022/01/20 00:28:15;;;;;;;2.00;1.53;;;;;;;;;;5031940;28;20244;-77
2022/01/20 00:33:18;;;;;;;1.67;1.57;;;;;;;;;;5033121;28;20214;-77
2022/01/20 00:38:15;;;;;;;1.50;1.40;;;;;;;;;;5031233;28;20269;-77
2022/01/20 00:40:40;;;;;;;1.93;1.73;;;;;;;;;;5021052;28;20253;-77
2022/01/20 00:43:05;;;;;;;1.67;1.57;;;;;;;;;;5014998;28;20186;-77
2022/01/20 00:45:31;;;;;;;1.57;1.17;;;;;;;;;;5017912;28;20179;-77
2022/01/20 00:47:56;;;;;;;1.63;1.53;;;;;;;;;;5052350;28;20272;-77
2022/01/20 00:50:22;;;;;;;1.00;1.00;;;;;;;;;;5019072;28;20270;-77
2022/01/20 00:52:48;;;;;;;1.40;1.30;;;;;;;;;;5021983;28;20195;-77
2022/01/20 00:55:13;;;;;;;2.13;1.40;;;;;;;;;;5047911;28;20182;-77
2022/01/20 00:57:38;;;;;;;1.30;1.20;;;;;;;;;;5014084;28;20214;-77
2022/01/20 01:00:06;;;;;;;1.87;1.40;;;;;;;;;;5015378;28;20181;-77
2022/01/20 01:02:33;;;;;;;1.40;1.30;;;;;;;;;;5018418;28;20190;-77
2022/01/20 01:04:58;;;;;;;2.40;1.40;;;;;;;;;;5032691;28;20189;-77
2022/01/20 01:09:55;;;;;;;1.27;1.17;;;;;;;;;;5033616;28;20191;-77
2022/01/20 01:12:32;;;;;;;1.20;1.10;;;;;;;;;;5043928;28;20382;-77
2022/01/20 01:14:58;;;;;;;1.50;1.40;;;;;;;;;;5023610;28;20388;-77
2022/01/20 01:22:29;;;;;;;1.30;1.20;;;;;;;;;;5027177;28;20213;-77
2022/01/20 01:24:55;;;;;;;1.20;1.10;;;;;;;;;;5037667;28;20178;-77
2022/01/20 01:27:22;;;;;;;1.33;1.23;;;;;;;;;;5014920;28;20187;-77
2022/01/20 01:30:12;;;;;;;0.90;0.90;;;;;;;;;;5032179;28;20177;-77
2022/01/20 01:32:48;;;;;;;1.00;1.00;;;;;;;;;;5031446;28;20226;-77
2022/01/20 01:35:14;;;;;;;1.30;1.20;;;;;;;;;;5031480;28;20174;-77
2022/01/20 01:40:06;;;;;;;0.67;0.67;;;;;;;;;;5031440;28;20249;-77
2022/01/20 01:42:38;;;;;;;0.53;0.53;;;;;;;;;;5045331;28;20222;-77
2022/01/20 01:45:07;;;;;;;0.73;0.73;;;;;;;;;;5013640;28;20179;-77
2022/01/20 01:47:32;;;;;;;0.70;0.70;;;;;;;;;;5028250;28;20190;-77
2022/01/20 01:49:58;;;;;;;0.90;0.90;;;;;;;;;;5047076;28;20187;-77
2022/01/20 01:52:23;;;;;;;0.80;0.80;;;;;;;;;;5045411;28;20187;-77
2022/01/20 01:54:48;;;;;;;1.30;1.20;;;;;;;;;;5048171;28;20473;-77
2022/01/20 01:57:13;;;;;;;1.00;0.97;;;;;;;;;;5040672;28;20179;-77
2022/01/20 01:59:38;;;;;;;0.90;0.90;;;;;;;;;;5008857;28;20189;-77
2022/01/20 02:02:04;;;;;;;1.20;1.10;;;;;;;;;;5030278;28;20181;-77
2022/01/20 02:04:29;;;;;;;1.30;1.20;;;;;;;;;;5012865;28;20185;-77
2022/01/20 02:20:37;;;;;;;1.70;1.50;;;;;;;;;;5032463;28;20181;-77
2022/01/20 02:23:02;;;;;;;1.00;1.00;;;;;;;;;;5025909;28;20175;-77
2022/01/20 02:25:29;;;;;;;1.63;1.53;;;;;;;;;;5010698;28;20198;-77
2022/01/20 02:27:55;;;;;;;1.73;1.60;;;;;;;;;;5012897;28;20524;-77
2022/01/20 02:30:21;;;;;;;1.50;1.10;;;;;;;;;;5012895;28;20314;-77
2022/01/20 02:32:52;;;;;;;1.80;1.43;;;;;;;;;;5045990;28;20260;-77
2022/01/20 02:35:18;;;;;;;1.43;1.33;;;;;;;;;;5012111;28;20369;-77
2022/01/20 02:37:43;;;;;;;1.83;1.73;;;;;;;;;;5046081;28;20193;-77
2022/01/20 02:45:37;;;;;;;1.70;1.57;;;;;;;;;;5026363;28;20234;-77
2022/01/20 02:48:02;;;;;;;1.70;1.60;;;;;;;;;;5043775;28;20281;-77
2022/01/20 02:50:27;;;;;;;2.63;1.63;;;;;;;;;;5007311;28;20174;-77
2022/01/20 02:52:52;;;;;;;1.50;1.40;;;;;;;;;;5010942;28;20253;-77
2022/01/20 02:55:17;;;;;;;1.73;1.63;;;;;;;;;;5013610;28;20182;-77
2022/01/20 02:57:43;;;;;;;1.93;1.83;;;;;;;;;;5013338;28;20167;-77
2022/01/20 03:00:08;;;;;;;2.40;1.87;;;;;;;;;;5032285;28;20465;-77
2022/01/20 03:02:33;;;;;;;2.87;2.13;;;;;;;;;;5015580;28;20178;-77
2022/01/20 03:04:58;;;;;;;2.50;2.23;;;;;;;;;;5011835;28;20198;-77
2022/01/20 03:07:24;;;;;;;1.70;1.40;;;;;;;;;;5041298;28;20199;-77
2022/01/20 03:09:49;;;;;;;2.40;2.20;;;;;;;;;;5047614;28;20185;-77
2022/01/20 03:12:14;;;;;;;2.17;1.97;;;;;;;;;;5031379;28;20187;-77
2022/01/20 03:14:39;;;;;;;2.13;1.93;;;;;;;;;;5016698;28;20174;-77
2022/01/20 03:17:05;;;;;;;2.30;2.00;;;;;;;;;;5017808;28;20197;-77
2022/01/20 03:19:30;;;;;;;1.43;1.33;;;;;;;;;;5032087;28;20186;-77
2022/01/20 03:21:56;;;;;;;2.47;1.70;;;;;;;;;;5029826;28;20174;-77
2022/01/20 03:24:21;;;;;;;2.00;1.80;;;;;;;;;;5012915;28;20190;-77
2022/01/20 03:26:46;;;;;;;2.50;2.00;;;;;;;;;;5029750;28;20182;-77
2022/01/20 03:29:12;;;;;;;3.93;2.40;;;;;;;;;;5045819;28;20394;-77
2022/01/20 03:31:37;;;;;;;3.03;2.73;;;;;;;;;;5014045;28;20186;-77
2022/01/20 03:34:03;;;;;;;3.57;2.50;;;;;;;;;;5011550;28;20217;-77
2022/01/20 03:36:28;;;;;;;2.87;2.57;;;;;;;;;;5044389;28;20181;-77
2022/01/20 03:38:53;;;;;;;4.33;2.87;;;;;;;;;;5044479;28;20693;-76
2022/01/20 03:41:19;;;;;;;2.57;2.00;;;;;;;;;;5012550;28;20205;-77
2022/01/20 03:43:44;;;;;;;3.67;2.90;;;;;;;;;;5036506;28;20179;-76
2022/01/20 03:46:12;;;;;;;2.60;2.40;;;;;;;;;;5017311;28;20205;-77
2022/01/20 03:48:50;;;;;;;2.67;2.47;;;;;;;;;;5017994;28;20182;-77
2022/01/20 03:51:21;;;;;;;3.97;2.97;;;;;;;;;;5031831;28;20178;-77
2022/01/20 03:53:47;;;;;;;2.37;2.17;;;;;;;;;;5023557;28;20213;-77
2022/01/20 03:56:12;;;;;;;3.60;3.10;;;;;;;;;;5009201;28;20174;-77
2022/01/20 03:58:37;;;;;;;3.53;3.23;;;;;;;;;;5033200;28;20175;-77
2022/01/20 04:01:02;;;;;;;3.30;2.93;;;;;;;;;;5051583;28;20189;-77
2022/01/20 04:03:27;;;;;;;3.13;2.77;;;;;;;;;;5016275;28;20183;-77
2022/01/20 04:05:59;;;;;;;3.67;3.27;;;;;;;;;;5032919;28;20236;-77
2022/01/20 04:08:31;;;;;;;4.10;3.70;;;;;;;;;;5033334;28;20179;-77
2022/01/20 04:10:58;;;;;;;6.97;3.83;;;;;;;;;;5021139;28;20202;-77
2022/01/20 04:13:27;;;;;;;5.10;3.97;;;;;;;;;;5032561;28;20191;-77
2022/01/20 04:15:54;;;;;;;2.90;2.60;;;;;;;;;;5031255;28;20317;-77
2022/01/20 04:18:23;;;;;;;3.27;2.97;;;;;;;;;;5039342;28;20179;-77
2022/01/20 04:20:49;;;;;;;4.03;3.23;;;;;;;;;;5009394;28;20182;-77
2022/01/20 04:23:14;;;;;;;4.60;3.13;;;;;;;;;;5015645;28;20183;-77
2022/01/20 04:25:39;;;;;;;6.23;3.33;;;;;;;;;;5035970;28;20171;-77
2022/01/20 04:28:05;;;;;;;3.57;3.03;;;;;;;;;;5046318;28;20187;-77
2022/01/20 04:30:30;;;;;;;5.03;3.83;;;;;;;;;;5021954;28;20182;-77
2022/01/20 04:32:55;;;;;;;3.10;2.80;;;;;;;;;;5013646;28;20249;-77
2022/01/20 04:35:21;;;;;;;2.37;2.17;;;;;;;;;;5033428;28;20175;-77
2022/01/20 04:37:48;;;;;;;3.47;3.00;;;;;;;;;;5034048;28;20254;-77
2022/01/20 04:40:15;;;;;;;3.53;3.23;;;;;;;;;;5047664;28;20185;-77
2022/01/20 04:42:42;;;;;;;3.40;2.47;;;;;;;;;;5010507;28;20449;-77
2022/01/20 04:45:11;;;;;;;3.17;2.30;;;;;;;;;;5040557;28;20191;-77
2022/01/20 04:58:17;;;;;;;1.60;1.50;;;;;;;;;;5030148;28;20247;-76
2022/01/20 05:00:42;;;;;;;1.87;1.70;;;;;;;;;;5016701;28;20179;-77
2022/01/20 05:03:07;;;;;;;2.20;1.97;;;;;;;;;;5021547;28;20175;-77
2022/01/20 05:05:33;;;;;;;2.90;2.30;;;;;;;;;;5032249;28;20187;-76
2022/01/20 05:07:59;;;;;;;2.90;2.50;;;;;;;;;;5016788;28;20174;-77
2022/01/20 05:10:24;;;;;;;2.27;2.00;;;;;;;;;;5028075;28;20186;-77
2022/01/20 05:15:18;;;;;;;3.53;2.87;;;;;;;;;;5040883;28;20226;-77
2022/01/20 05:17:43;;;;;;;3.37;2.70;;;;;;;;;;5036541;28;20189;-77
2022/01/20 05:20:09;;;;;;;4.03;2.83;;;;;;;;;;5019501;28;20261;-77
2022/01/20 05:22:34;;;;;;;3.60;2.80;;;;;;;;;;5016938;28;20174;-77
2022/01/20 05:24:59;;;;;;;3.40;2.73;;;;;;;;;;5014980;28;20179;-77
2022/01/20 05:27:24;;;;;;;3.40;2.93;;;;;;;;;;5045835;28;20194;-77
2022/01/20 05:29:49;;;;;;;4.43;3.73;;;;;;;;;;5036094;28;20168;-77
2022/01/20 05:32:15;;;;;;;4.47;4.03;;;;;;;;;;5014885;28;20302;-77
2022/01/20 05:34:40;;;;;;;5.00;3.50;;;;;;;;;;5032017;28;20213;-77
2022/01/20 05:37:05;;;;;;;3.60;3.30;;;;;;;;;;5048103;28;20179;-77
2022/01/20 05:39:31;;;;;;;5.83;4.37;;;;;;;;;;5012748;28;20260;-78
2022/01/20 05:41:56;;;;;;;5.17;4.53;;;;;;;;;;5016031;28;20190;-77
2022/01/20 05:44:21;;;;;;;4.60;3.60;;;;;;;;;;5016457;28;20174;-77
2022/01/20 05:46:49;;;;;;;3.63;3.17;;;;;;;;;;5011825;28;20210;-77
2022/01/20 05:49:20;;;;;;;5.37;3.60;;;;;;;;;;5013731;28;20183;-77
2022/01/20 05:51:46;;;;;;;3.67;3.20;;;;;;;;;;5014146;28;20265;-77
2022/01/20 05:54:11;;;;;;;2.73;2.43;;;;;;;;;;5032000;28;20352;-77
2022/01/20 05:56:37;;;;;;;4.00;3.13;;;;;;;;;;5043901;28;20190;-77
2022/01/20 05:59:02;;;;;;;3.27;2.97;;;;;;;;;;5037991;28;20177;-77
2022/01/20 06:01:27;;;;;;;3.30;2.70;;;;;;;;;;5013657;28;20186;-77
2022/01/20 06:03:53;;;;;;;3.37;2.53;;;;;;;;;;5042802;28;20182;-76
2022/01/20 06:06:18;;;;;;;2.40;2.20;;;;;;;;;;5044793;28;20182;-77
2022/01/20 06:08:44;;;;;;;2.43;1.80;;;;;;;;;;5016380;28;20190;-77
2022/01/20 06:11:09;;;;;;;2.07;1.80;;;;;;;;;;5014918;28;20181;-81
2022/01/20 06:13:34;;;;;;;1.07;0.97;;;;;;;;;;5014751;28;20195;-82
2022/01/20 06:16:00;;;;;;;2.10;1.87;;;;;;;;;;5014468;28;20298;-81
2022/01/20 06:18:25;;;;;;;1.60;1.50;;;;;;;;;;5035913;28;20266;-81
2022/01/20 06:20:51;;;;;;;2.43;2.13;;;;;;;;;;5009819;28;20175;-81
2022/01/20 06:23:17;;;;;;;3.30;2.23;;;;;;;;;;5013600;28;20175;-81
2022/01/20 06:25:42;;;;;;;3.47;2.87;;;;;;;;;;5012561;28;20175;-81
2022/01/20 06:28:08;;;;;;;4.07;2.73;;;;;;;;;;5013597;28;20244;-81
2022/01/20 06:30:34;;;;;;;9.93;5.00;;;;;;;;;;5014957;28;20179;-81
2022/01/20 06:32:59;;;;;;;6.37;3.57;;;;;;;;;;5015559;28;20218;-82
2022/01/20 06:35:24;;;;;;;4.47;3.07;;;;;;;;;;5016113;28;20213;-81
2022/01/20 06:37:49;;;;;;;6.07;3.43;;;;;;;;;;5017286;28;20202;-81
2022/01/20 06:40:15;;;;;;;16.50;8.07;;;;;;;;;;5017290;28;20233;-82
2022/01/20 06:42:40;;;;;;;14.93;10.80;;;;;;;;;;5050124;28;20175;-81
2022/01/20 06:45:07;;;;;;;9.27;4.83;;;;;;;;;;5013538;28;20435;-81
2022/01/20 06:47:32;;;;;;;10.13;6.63;;;;;;;;;;5019664;28;20179;-81
2022/01/20 06:49:57;;;;;;;8.13;5.00;;;;;;;;;;5046489;28;20243;-81
2022/01/20 06:52:23;;;;;;;7.40;5.50;;;;;;;;;;5016247;28;20195;-81
2022/01/20 06:54:49;;;;;;;7.23;5.27;;;;;;;;;;5022541;28;20253;-82
2022/01/20 06:57:14;;;;;;;9.03;5.47;;;;;;;;;;5044276;28;20179;-81
2022/01/20 06:59:40;;;;;;;10.50;5.80;;;;;;;;;;5043198;28;20230;-81
2022/01/20 07:02:05;;;;;;;9.23;5.97;;;;;;;;;;5011977;28;20182;-81
2022/01/20 07:04:32;;;;;;;11.93;5.00;;;;;;;;;;5014987;28;20189;-81
2022/01/20 07:06:57;;;;;;;7.93;5.27;;;;;;;;;;5026709;28;20266;-81
2022/01/20 07:09:22;;;;;;;10.57;5.07;;;;;;;;;;5046104;28;20258;-81
2022/01/20 07:11:47;;;;;;;8.77;4.97;;;;;;;;;;5030026;28;20185;-81
2022/01/20 07:14:13;;;;;;;8.20;5.87;;;;;;;;;;5046445;28;20202;-81
2022/01/20 07:16:38;;;;;;;11.03;5.80;;;;;;;;;;5014406;28;20243;-81
2022/01/20 07:19:03;;;;;;;8.17;4.77;;;;;;;;;;5015576;28;20209;-81
2022/01/20 07:21:29;;;;;;;9.90;6.23;;;;;;;;;;5012015;28;20175;-81
2022/01/20 07:23:54;;;;;;;7.37;6.13;;;;;;;;;;5042130;28;20187;-82
2022/01/20 07:26:19;;;;;;;16.70;8.57;;;;;;;;;;5016304;28;20202;-81
2022/01/20 07:28:45;;;;;;;11.10;6.47;;;;;;;;;;5045615;28;20546;-81
2022/01/20 07:31:10;;;;;;;9.57;7.00;;;;;;;;;;5029362;28;20253;-81
2022/01/20 07:33:35;;;;;;;9.33;7.50;;;;;;;;;;5013534;28;20218;-81
2022/01/20 07:36:01;;;;;;;8.77;7.77;;;;;;;;;;5014250;28;20287;-81
2022/01/20 07:38:26;;;;;;;12.07;6.70;;;;;;;;;;5012239;28;20171;-81
2022/01/20 07:40:52;;;;;;;8.03;6.20;;;;;;;;;;5026988;28;20261;-81
2022/01/20 07:43:17;;;;;;;8.77;4.97;;;;;;;;;;5021699;28;20227;-81
2022/01/20 07:45:45;;;;;;;10.50;6.67;;;;;;;;;;5044767;28;20270;-81
2022/01/20 07:48:10;;;;;;;13.83;6.70;;;;;;;;;;5007896;28;20184;-81
2022/01/20 07:50:35;;;;;;;9.30;6.77;;;;;;;;;;5041989;28;20182;-81
2022/01/20 07:53:00;;;;;;;13.00;6.27;;;;;;;;;;5017974;28;21438;-81
2022/01/20 07:55:25;;;;;;;10.73;6.80;;;;;;;;;;5045080;28;20166;-81
2022/01/20 07:57:51;;;;;;;8.83;6.27;;;;;;;;;;5010602;28;20174;-80
2022/01/20 08:00:16;;;;;;;10.10;5.73;;;;;;;;;;5018448;28;20184;-81
2022/01/20 08:02:42;;;;;;;8.70;6.43;;;;;;;;;;5015009;28;20265;-81
2022/01/20 08:05:07;;;;;;;16.23;10.93;;;;;;;;;;5014376;28;20170;-81
2022/01/20 08:07:32;;;;;;;17.33;9.63;;;;;;;;;;5013216;28;20225;-81
2022/01/20 08:09:58;;;;;;;27.80;16.20;;;;;;;;;;5014128;28;20246;-82
2022/01/20 08:12:28;;;;;;;10.10;6.33;;;;;;;;;;5014012;28;20177;-81
2022/01/20 08:14:53;;;;;;;13.90;7.57;;;;;;;;;;5045218;28;20180;-81
2022/01/20 08:17:19;;;;;;;11.10;7.80;;;;;;;;;;5018295;28;20203;-81
2022/01/20 08:19:44;;;;;;;9.10;6.00;;;;;;;;;;5016183;28;20177;-81
2022/01/20 08:22:09;;;;;;;15.93;7.07;;;;;;;;;;5011511;28;20218;-82
2022/01/20 08:24:35;;;;;;;11.43;7.57;;;;;;;;;;5012247;28;20209;-81
2022/01/20 08:27:00;;;;;;;10.17;5.87;;;;;;;;;;5007367;28;20183;-81
2022/01/20 08:29:25;;;;;;;10.20;6.93;;;;;;;;;;5029467;28;20182;-81
2022/01/20 08:31:51;;;;;;;12.27;6.20;;;;;;;;;;5028724;28;20277;-81
2022/01/20 08:34:16;;;;;;;13.70;6.27;;;;;;;;;;5031928;28;20268;-81
2022/01/20 08:36:42;;;;;;;10.53;6.40;;;;;;;;;;5020313;28;20181;-81
2022/01/20 08:41:52;;;;;;;13.47;8.23;;;;;;;;;;5033931;28;20189;-81
2022/01/20 08:44:17;;;;;;;12.00;7.90;;;;;;;;;;5044779;28;20187;-80
2022/01/20 08:46:42;;;;;;;18.87;9.40;;;;;;;;;;5055630;28;20180;-81
2022/01/20 08:49:07;;;;;;;12.53;8.37;;;;;;;;;;5014602;28;20177;-81
2022/01/20 08:51:33;;;;;;;11.33;8.53;;;;;;;;;;5018020;28;20216;-81
2022/01/20 08:53:58;;;;;;;12.57;7.97;;;;;;;;;;5052848;28;20243;-81
2022/01/20 08:56:23;;;;;;;12.23;7.87;;;;;;;;;;5048785;28;20178;-81
2022/01/20 08:58:48;;;;;;;11.23;8.83;;;;;;;;;;5046370;28;20196;-81
2022/01/20 09:01:13;;;;;;;12.50;9.10;;;;;;;;;;5015994;28;20186;-81
2022/01/20 09:03:39;;;;;;;10.80;7.33;;;;;;;;;;5016709;28;20391;-81
2022/01/20 09:06:06;;;;;;;8.10;4.93;;;;;;;;;;5049151;28;20184;-81
2022/01/20 09:08:31;;;;;;;12.57;6.97;;;;;;;;;;5025137;28;20182;-81
2022/01/20 09:10:56;;;;;;;9.70;5.87;;;;;;;;;;5048681;28;20179;-81
2022/01/20 09:16:05;;;;;;;10.33;7.70;;;;;;;;;;5035089;28;20227;-81
2022/01/20 09:18:31;;;;;;;13.40;6.33;;;;;;;;;;5021039;28;20182;-81
2022/01/20 09:20:56;;;;;;;9.13;5.53;;;;;;;;;;5034241;28;20190;-81
2022/01/20 09:23:21;;;;;;;15.43;7.87;;;;;;;;;;5046604;28;20224;-81
2022/01/20 09:25:49;;;;;;;9.20;6.60;;;;;;;;;;5014592;28;20277;-81
2022/01/20 09:28:14;;;;;;;14.87;8.37;;;;;;;;;;5015655;28;20266;-81
2022/01/20 09:30:40;;;;;;;8.37;7.13;;;;;;;;;;5041103;28;20269;-81
2022/01/20 09:33:16;;;;;;;13.03;7.63;;;;;;;;;;5013732;28;20211;-81
2022/01/20 09:35:42;;;;;;;13.17;7.13;;;;;;;;;;5014672;28;20185;-81
2022/01/20 09:38:08;;;;;;;15.53;7.43;;;;;;;;;;5017158;28;20630;-81
2022/01/20 09:40:34;;;;;;;13.30;7.53;;;;;;;;;;5013925;28;20200;-81
2022/01/20 09:43:00;;;;;;;8.10;5.63;;;;;;;;;;5014293;28;20220;-81
2022/01/20 09:45:26;;;;;;;14.03;6.57;;;;;;;;;;5017833;28;20179;-81
2022/01/20 09:47:51;;;;;;;10.53;6.47;;;;;;;;;;5009812;28;20206;-81
2022/01/20 09:50:19;;;;;;;11.87;7.03;;;;;;;;;;5013706;28;20182;-81
2022/01/20 09:52:45;;;;;;;13.90;7.17;;;;;;;;;;5014756;28;20176;-81
2022/01/20 09:55:10;;;;;;;9.87;5.90;;;;;;;;;;5013254;28;20186;-80
2022/01/20 09:57:35;;;;;;;10.63;7.10;;;;;;;;;;5016944;28;20174;-80
2022/01/20 10:00:01;;;;;;;13.37;7.13;;;;;;;;;;5013851;28;20187;-81
2022/01/20 10:02:26;;;;;;;10.37;7.07;;;;;;;;;;5046807;28;20189;-81
2022/01/20 10:04:54;;;;;;;11.13;5.33;;;;;;;;;;5014175;28;20273;-81
2022/01/20 10:07:20;;;;;;;9.17;5.63;;;;;;;;;;5027128;28;20177;-81
2022/01/20 10:09:48;;;;;;;12.23;7.00;;;;;;;;;;5046791;28;20246;-81
2022/01/20 10:12:15;;;;;;;12.03;6.20;;;;;;;;;;5033493;28;20191;-81
2022/01/20 10:14:48;;;;;;;12.83;6.57;;;;;;;;;;5011500;28;20210;-81
2022/01/20 10:17:24;;;;;;;8.30;6.00;;;;;;;;;;4998653;28;20241;-80
2022/01/20 10:19:53;;;;;;;8.27;6.27;;;;;;;;;;4995295;28;20215;-81
2022/01/20 10:22:23;;;;;;;11.50;5.60;;;;;;;;;;4994612;28;20452;-81
2022/01/20 10:25:04;;;;;;;11.43;6.73;;;;;;;;;;4996744;28;20247;-80
2022/01/20 10:27:30;;;;;;;10.40;6.40;;;;;;;;;;4981527;28;20194;-81
2022/01/20 10:29:57;;;;;;;8.07;5.03;;;;;;;;;;5003143;28;20227;-80
2022/01/20 10:32:23;;;;;;;10.03;6.93;;;;;;;;;;4989445;28;20226;-81
2022/01/20 10:34:48;;;;;;;12.83;8.67;;;;;;;;;;4994258;28;20222;-81
2022/01/20 10:37:19;;;;;;;8.60;6.03;;;;;;;;;;4990312;28;20179;-81
2022/01/20 10:39:45;;;;;;;14.83;6.87;;;;;;;;;;5008117;28;20181;-81
2022/01/20 10:42:15;;;;;;;14.70;8.27;;;;;;;;;;5013692;28;20274;-81
2022/01/20 10:44:40;;;;;;;15.13;8.20;;;;;;;;;;5015669;28;20182;-80
2022/01/20 10:47:10;;;;;;;11.20;6.70;;;;;;;;;;4989694;28;20184;-81
2022/01/20 10:49:35;;;;;;;10.50;7.53;;;;;;;;;;5009765;28;20179;-80
2022/01/20 10:52:03;;;;;;;16.20;8.00;;;;;;;;;;5012349;28;20186;-80
2022/01/20 10:54:35;;;;;;;19.17;8.27;;;;;;;;;;5020628;28;20218;-81
2022/01/20 10:57:01;;;;;;;13.87;8.03;;;;;;;;;;4986250;28;20201;-80
2022/01/20 10:59:26;;;;;;;14.93;8.33;;;;;;;;;;5003432;28;20176;-80
2022/01/20 11:01:57;;;;;;;14.57;7.27;;;;;;;;;;5008351;28;20164;-79
2022/01/20 11:04:22;;;;;;;10.97;5.57;;;;;;;;;;4990973;28;20187;-80
2022/01/20 11:06:52;;;;;;;10.83;7.10;;;;;;;;;;5028172;28;20195;-80
2022/01/20 11:09:20;;;;;;;10.43;6.63;;;;;;;;;;4989636;28;20181;-80
2022/01/20 11:11:48;;;;;;;13.77;7.87;;;;;;;;;;5000896;28;20183;-80
2022/01/20 11:14:13;;;;;;;14.93;6.90;;;;;;;;;;4989768;28;20285;-81
2022/01/20 11:16:39;;;;;;;10.27;6.17;;;;;;;;;;5013497;28;20304;-80
2022/01/20 11:19:13;;;;;;;8.23;5.80;;;;;;;;;;5009725;28;20318;-80
2022/01/20 11:21:42;;;;;;;10.07;6.67;;;;;;;;;;5018282;28;20174;-80
2022/01/20 11:24:15;;;;;;;11.00;6.37;;;;;;;;;;5012473;28;20186;-80
2022/01/20 11:26:51;;;;;;;12.83;9.60;;;;;;;;;;5014614;28;20244;-80
2022/01/20 11:29:16;;;;;;;9.30;5.20;;;;;;;;;;5010163;28;20179;-80
2022/01/20 11:31:42;;;;;;;10.90;6.30;;;;;;;;;;5017441;28;20228;-80
2022/01/20 11:34:17;;;;;;;11.63;8.67;;;;;;;;;;5008404;28;20217;-80
2022/01/20 11:36:43;;;;;;;11.77;7.67;;;;;;;;;;5009935;28;20182;-80
2022/01/20 11:39:09;;;;;;;11.37;6.70;;;;;;;;;;5011324;28;20186;-80
2022/01/20 11:41:37;;;;;;;12.47;7.73;;;;;;;;;;5018307;28;20174;-80
2022/01/20 11:44:10;;;;;;;15.00;10.63;;;;;;;;;;5011588;28;20196;-81
2022/01/20 11:46:38;;;;;;;11.77;8.90;;;;;;;;;;5015500;28;20209;-80
2022/01/20 11:49:08;;;;;;;12.70;6.80;;;;;;;;;;5017562;28;20182;-81
2022/01/20 11:51:43;;;;;;;12.10;8.53;;;;;;;;;;5010797;28;20178;-80
2022/01/20 11:54:09;;;;;;;7.57;5.53;;;;;;;;;;5029778;28;20210;-80
2022/01/20 11:56:35;;;;;;;10.73;6.97;;;;;;;;;;5017255;28;20181;-80
2022/01/20 11:59:02;;;;;;;13.80;7.63;;;;;;;;;;5011304;28;20182;-80
2022/01/20 12:01:30;;;;;;;11.07;6.17;;;;;;;;;;5011713;28;20198;-80
2022/01/20 12:03:56;;;;;;;10.30;6.80;;;;;;;;;;5012229;28;20185;-80
2022/01/20 12:06:25;;;;;;;15.17;9.27;;;;;;;;;;5046795;28;20253;-80
2022/01/20 12:08:58;;;;;;;13.73;8.20;;;;;;;;;;5049021;28;20253;-80
2022/01/20 12:11:52;;;;;;;17.87;14.33;;;;;;;;;;5015546;28;20420;-80
2022/01/20 12:14:38;;;;;;;14.50;12.60;;;;;;;;;;4997162;28;20207;-80
2022/01/20 12:17:03;;;;;;;14.00;10.20;;;;;;;;;;5017143;28;20233;-80
2022/01/20 12:19:29;;;;;;;22.33;14.02;;;;;;;;;;5020071;28;20170;-80
2022/01/20 12:21:57;;;;;;;10.90;7.83;;;;;;;;;;5014846;28;20221;-80
2022/01/20 12:24:23;;;;;;;12.40;7.20;;;;;;;;;;5046778;28;20179;-80
2022/01/20 12:26:48;;;;;;;8.40;6.60;;;;;;;;;;5028649;28;20209;-80
2022/01/20 12:29:13;;;;;;;9.67;8.43;;;;;;;;;;5015859;28;20186;-80
2022/01/20 12:31:51;;;;;;;11.47;7.67;;;;;;;;;;5018035;28;20218;-80
2022/01/20 12:34:16;;;;;;;11.17;7.37;;;;;;;;;;5038828;28;20301;-80
2022/01/20 12:36:49;;;;;;;10.37;6.53;;;;;;;;;;5018296;28;20277;-79
2022/01/20 12:39:20;;;;;;;10.83;6.90;;;;;;;;;;5027444;28;20249;-80
2022/01/20 12:41:52;;;;;;;8.23;7.40;;;;;;;;;;5013518;28;20178;-80
2022/01/20 12:44:18;;;;;;;11.30;10.17;;;;;;;;;;5019920;28;20275;-80
2022/01/20 12:46:46;;;;;;;10.33;7.30;;;;;;;;;;5009861;28;20258;-80
2022/01/20 12:49:13;;;;;;;7.17;5.47;;;;;;;;;;5013380;28;20179;-80
2022/01/20 12:51:41;;;;;;;10.20;5.10;;;;;;;;;;5016506;28;20214;-80
2022/01/20 12:54:11;;;;;;;4.90;2.37;;;;;;;;;;5018420;28;20229;-81
2022/01/20 12:56:38;;;;;;;2.07;1.47;;;;;;;;;;5009834;28;20214;-81
2022/01/20 12:59:04;;;;;;;1.97;1.20;;;;;;;;;;5015032;28;20185;-81
2022/01/20 13:01:40;;;;;;;0.77;0.77;;;;;;;;;;5015736;28;20175;-81
2022/01/20 13:04:08;;;;;;;3.00;1.43;;;;;;;;;;5012185;28;20239;-81
2022/01/20 13:06:33;;;;;;;0.93;0.93;;;;;;;;;;5014963;28;20175;-81
2022/01/20 13:09:09;;;;;;;0.53;0.53;;;;;;;;;;5014914;28;20234;-81
2022/01/20 13:11:39;;;;;;;5.07;1.80;;;;;;;;;;5007287;28;20178;-81
2022/01/20 13:14:04;;;;;;;1.60;1.37;;;;;;;;;;5012376;28;20264;-81
2022/01/20 13:16:31;;;;;;;3.00;1.40;;;;;;;;;;5014676;28;20245;-81
2022/01/20 13:18:58;;;;;;;2.20;1.40;;;;;;;;;;5040461;28;20175;-81
2022/01/20 13:21:33;;;;;;;2.97;1.60;;;;;;;;;;5008019;28;20172;-80
2022/01/20 13:23:58;;;;;;;3.80;1.40;;;;;;;;;;5014490;28;20174;-80
2022/01/20 13:26:25;;;;;;;1.20;1.00;;;;;;;;;;5011593;28;20183;-80
2022/01/20 13:29:16;;;;;;;1.97;1.77;;;;;;;;;;5009145;28;20179;-80
2022/01/20 13:31:42;;;;;;;3.60;1.60;;;;;;;;;;5010774;28;20191;-80
2022/01/20 13:34:11;;;;;;;1.87;1.37;;;;;;;;;;5011098;28;20214;-79
2022/01/20 13:36:40;;;;;;;2.30;2.10;;;;;;;;;;5010422;28;20190;-80
2022/01/20 13:39:05;;;;;;;4.73;3.00;;;;;;;;;;5013733;28;20174;-80
2022/01/20 13:41:30;;;;;;;3.67;1.70;;;;;;;;;;5012162;28;20171;-79
2022/01/20 13:46:42;;;;;;;1.10;0.80;;;;;;;;;;5035309;28;20240;-80
2022/01/20 13:49:07;;;;;;;5.50;1.30;;;;;;;;;;5016439;28;20194;-80
2022/01/20 13:51:32;;;;;;;3.03;1.33;;;;;;;;;;5012289;28;20180;-80
2022/01/20 13:53:57;;;;;;;3.03;1.90;;;;;;;;;;5012238;28;20210;-80
2022/01/20 13:56:22;;;;;;;6.17;2.20;;;;;;;;;;5011882;28;20193;-80
2022/01/20 13:58:48;;;;;;;2.07;1.50;;;;;;;;;;5043731;28;20166;-80
2022/01/20 14:01:13;;;;;;;1.60;1.50;;;;;;;;;;5013900;28;20246;-80
2022/01/20 14:03:41;;;;;;;3.50;2.27;;;;;;;;;;5011504;28;20179;-79
2022/01/20 14:06:07;;;;;;;2.83;1.97;;;;;;;;;;5014432;28;20187;-80
2022/01/20 14:08:36;;;;;;;3.27;1.67;;;;;;;;;;5009187;28;20255;-80
2022/01/20 14:11:01;;;;;;;1.03;1.00;;;;;;;;;;5009173;28;20286;-80
2022/01/20 14:13:27;;;;;;;4.87;2.93;;;;;;;;;;5007294;28;20294;-80
2022/01/20 14:15:53;;;;;;;3.20;2.60;;;;;;;;;;5013704;28;20222;-80
2022/01/20 14:18:21;;;;;;;4.93;3.70;;;;;;;;;;5017464;28;20218;-80
2022/01/20 14:20:46;;;;;;;6.47;3.40;;;;;;;;;;5019095;28;20175;-81
2022/01/20 14:23:12;;;;;;;10.27;3.30;;;;;;;;;;5012207;28;20186;-80
2022/01/20 14:25:37;;;;;;;6.60;4.13;;;;;;;;;;5013118;28;20175;-80
2022/01/20 14:28:02;;;;;;;3.97;3.53;;;;;;;;;;5044190;28;20299;-80
2022/01/20 14:30:28;;;;;;;5.03;3.10;;;;;;;;;;5043831;28;20178;-79
2022/01/20 14:32:54;;;;;;;4.97;2.70;;;;;;;;;;5018418;28;20213;-79
2022/01/20 14:35:20;;;;;;;6.03;2.63;;;;;;;;;;5009890;28;20185;-79
2022/01/20 14:37:46;;;;;;;6.67;2.83;;;;;;;;;;5030828;28;20190;-80
2022/01/20 14:40:12;;;;;;;5.07;2.37;;;;;;;;;;5005353;28;20181;-79
2022/01/20 14:42:38;;;;;;;6.37;2.37;;;;;;;;;;5012938;28;20179;-80
2022/01/20 14:45:05;;;;;;;6.77;2.73;;;;;;;;;;5030094;28;20188;-79
2022/01/20 14:47:31;;;;;;;5.13;2.50;;;;;;;;;;5001599;28;20186;-80
2022/01/20 14:49:57;;;;;;;7.43;2.93;;;;;;;;;;5015614;28;20191;-79
2022/01/20 14:52:22;;;;;;;3.60;2.03;;;;;;;;;;5044342;28;20180;-79
2022/01/20 14:54:48;;;;;;;2.93;1.90;;;;;;;;;;5022252;28;20191;-80
2022/01/20 14:57:13;;;;;;;6.43;2.47;;;;;;;;;;5030012;28;20183;-79
2022/01/20 14:59:39;;;;;;;3.47;2.37;;;;;;;;;;5025052;28;20167;-80
2022/01/20 15:02:04;;;;;;;7.30;3.00;;;;;;;;;;5038595;28;20187;-75
2022/01/20 15:04:30;;;;;;;6.03;3.00;;;;;;;;;;5014414;28;20186;-76
2022/01/20 15:06:55;;;;;;;6.27;3.47;;;;;;;;;;5020673;28;20186;-75
2022/01/20 15:09:20;;;;;;;8.37;2.87;;;;;;;;;;5043738;28;20270;-75
2022/01/20 15:11:46;;;;;;;4.10;2.93;;;;;;;;;;5013338;28;20266;-76
2022/01/20 15:14:11;;;;;;;5.87;3.20;;;;;;;;;;5007955;28;20231;-76
2022/01/20 15:16:36;;;;;;;5.27;2.50;;;;;;;;;;5026943;28;20230;-76
2022/01/20 15:19:05;;;;;;;5.93;2.80;;;;;;;;;;4998925;28;20326;-76
2022/01/20 15:21:30;;;;;;;8.40;2.60;;;;;;;;;;4983867;28;20251;-76
2022/01/20 15:23:55;;;;;;;6.93;2.07;;;;;;;;;;4984790;28;20272;-76
2022/01/20 15:26:21;;;;;;;3.40;2.93;;;;;;;;;;4993462;28;20183;-76
2022/01/20 15:28:48;;;;;;;3.00;1.67;;;;;;;;;;4989868;28;20505;-76
2022/01/20 15:31:14;;;;;;;2.60;2.20;;;;;;;;;;4982634;28;20175;-76
2022/01/20 15:33:43;;;;;;;5.83;3.17;;;;;;;;;;5003620;28;20206;-76
2022/01/20 15:36:08;;;;;;;3.90;2.60;;;;;;;;;;4987670;28;20207;-76
2022/01/20 15:38:34;;;;;;;1.80;1.07;;;;;;;;;;4985834;28;20172;-76
2022/01/20 15:40:59;;;;;;;5.80;1.97;;;;;;;;;;4992841;28;20190;-76
2022/01/20 15:43:24;;;;;;;7.63;3.63;;;;;;;;;;4979544;28;20184;-76
2022/01/20 15:45:50;;;;;;;6.93;2.93;;;;;;;;;;4983704;28;20188;-76
2022/01/20 15:48:15;;;;;;;7.27;2.20;;;;;;;;;;4995036;28;20187;-76
2022/01/20 15:50:40;;;;;;;4.70;2.57;;;;;;;;;;4988805;28;20207;-76
2022/01/20 15:53:06;;;;;;;2.50;1.33;;;;;;;;;;4991062;28;20199;-76